MMGL/GDL METAR and TAF weather

Enter ICAO airport designator
Station Type Date Time Source
MMGL METAR 2019/08/25 02:24 UTC NOAA

MMGL 250224Z 34008KT 1SM +RA OVC025CB 23/16 A3019 RMK 8/9// +RAB20


Station Type Date Time Source
MMGL Decoded METAR 2019/08/25 02:24 UTC NOAA

Station name not available
Aug 24, 2019 - 10:24 PM EDT / 2019.08.25 0224 UTC
Wind: from the NNW (340 degrees) at 9 MPH (8 KT):0
Visibility: 1 mile(s):0
Sky conditions: overcast
Weather: heavy rain; Cumulonimbus clouds observed
Temperature: 73 F (23 C)
Dew Point: 60 F (16 C)
Relative Humidity: 64%
Pressure (altimeter): 30.19 in. Hg (1022 hPa)
ob: MMGL 250224Z 34008KT 1SM +RA OVC025CB 23/16 A3019 RMK 8/9// +RAB20
cycle: 2

Station Type Date Time Source
MMGL TAF 2019/08/24 18:59 UTC NOAA

TAF MMGL 241652Z 2418/2524 02010KT P6SM BKN030 OVC090 TX27/2421Z TN17/2512Z
FM242100 02010KT P6SM VC -RA BKN030CB BKN080
TEMPO 2421/2501 4SM TSRA
FM250300 14010KT P6SM SCT030 BKN100
FM251200 03005KT 4SM HZ BKN020
TEMPO 2512/2515 3SM BR
FM251800 04005KT P6SM SCT010 BKN100

Example: see airport list